Time;durP1;ratioP1;P1;durP2;ratioP2;P2;SDS_P1;SDS_P2;PMS_P1;PMS_P2;Temp;Humidity;BMP_temperature;BMP_pressure;BME280_temperature;BME280_humidity;BME280_pressure;Samples;Min_cycle;Max_cycle;Signal;HPM_P1;HPM_P2
2021/09/11 06:27:19;;;;;;;22.55;8.20;;;22.30;72.00;;;;;;6371413;27;20544;-61
2021/09/11 06:30:21;;;;;;;21.55;7.80;;;22.30;72.40;;;;;;6365303;28;20035;-61
2021/09/11 06:33:22;;;;;;;27.33;9.55;;;22.40;72.20;;;;;;6370713;28;20335;-61
2021/09/11 06:36:22;;;;;;;28.83;8.95;;;22.50;71.60;;;;;;6352208;28;20051;-61
2021/09/11 06:39:23;;;;;;;31.17;9.60;;;22.60;71.50;;;;;;6353501;28;20050;-61
2021/09/11 06:42:24;;;;;;;28.98;9.30;;;22.70;71.00;;;;;;6369777;28;20077;-61
2021/09/11 06:45:24;;;;;;;21.38;8.98;;;22.80;70.60;;;;;;6371858;28;20522;-61
2021/09/11 06:48:25;;;;;;;25.63;9.27;;;22.80;70.30;;;;;;6369626;28;20462;-61
2021/09/11 06:51:25;;;;;;;29.40;9.13;;;22.90;70.40;;;;;;6370416;28;20029;-61
2021/09/11 06:54:26;;;;;;;24.83;8.43;;;22.90;70.40;;;;;;6370664;28;20016;-62
2021/09/11 06:57:26;;;;;;;28.55;9.98;;;23.00;70.30;;;;;;6370028;28;20023;-61
2021/09/11 07:00:27;;;;;;;26.13;9.05;;;23.00;70.00;;;;;;6371204;28;20037;-61
2021/09/11 07:03:28;;;;;;;20.02;8.82;;;23.00;70.10;;;;;;6369602;28;20115;-61
2021/09/11 07:06:28;;;;;;;25.35;8.80;;;23.00;69.80;;;;;;6370536;28;20103;-61
2021/09/11 07:09:29;;;;;;;23.23;8.05;;;23.10;69.90;;;;;;6369013;28;20060;-61
2021/09/11 07:12:30;;;;;;;25.75;8.55;;;23.00;69.70;;;;;;6370101;28;20024;-61
2021/09/11 07:15:31;;;;;;;30.60;9.18;;;23.10;69.70;;;;;;6351416;28;20334;-61
2021/09/11 07:18:35;;;;;;;25.33;9.50;;;23.10;69.60;;;;;;6369911;28;20064;-61
2021/09/11 07:21:35;;;;;;;22.88;8.48;;;23.10;69.60;;;;;;6368502;28;20436;-61
2021/09/11 07:24:36;;;;;;;27.88;8.52;;;23.10;69.30;;;;;;6370057;28;20081;-61
2021/09/11 07:27:36;;;;;;;22.17;7.88;;;23.10;69.50;;;;;;6351021;28;20103;-61
2021/09/11 07:30:37;;;;;;;22.08;8.57;;;23.10;69.40;;;;;;6362884;28;20047;-61
2021/09/11 07:33:38;;;;;;;19.88;7.82;;;23.10;69.30;;;;;;6370290;28;20034;-61
2021/09/11 07:36:39;;;;;;;20.80;8.30;;;23.10;69.30;;;;;;6363576;28;20028;-61
2021/09/11 07:39:40;;;;;;;24.65;9.07;;;23.10;69.20;;;;;;6334758;28;20020;-61
2021/09/11 07:42:40;;;;;;;24.60;9.07;;;23.10;69.10;;;;;;6351540;28;20457;-61
2021/09/11 07:45:41;;;;;;;17.35;7.68;;;23.10;69.10;;;;;;6352933;28;20028;-61
2021/09/11 07:48:41;;;;;;;21.58;7.70;;;23.10;69.20;;;;;;6351719;28;20059;-61
2021/09/11 07:51:42;;;;;;;13.55;7.25;;;23.20;69.10;;;;;;6334447;28;20027;-61
2021/09/11 07:54:42;;;;;;;17.15;7.50;;;23.10;69.20;;;;;;6351410;28;20031;-61
2021/09/11 07:57:43;;;;;;;18.55;7.90;;;23.10;69.10;;;;;;6352247;28;20088;-61
2021/09/11 08:00:44;;;;;;;18.30;8.25;;;23.10;69.00;;;;;;6352840;28;20051;-61
2021/09/11 08:03:44;;;;;;;16.30;8.52;;;23.10;69.00;;;;;;6350684;28;20042;-61
2021/09/11 08:06:45;;;;;;;16.00;7.80;;;23.20;69.00;;;;;;6352581;28;20469;-61
2021/09/11 08:09:45;;;;;;;12.40;6.72;;;23.10;69.00;;;;;;6350736;28;20104;-61
2021/09/11 08:12:49;;;;;;;15.30;7.78;;;23.10;68.90;;;;;;6351849;28;20027;-61
2021/09/11 08:15:50;;;;;;;13.65;7.45;;;23.10;68.90;;;;;;6350713;28;20034;-61
2021/09/11 08:18:50;;;;;;;13.77;6.88;;;23.10;68.90;;;;;;6316573;28;20027;-61
2021/09/11 08:21:51;;;;;;;16.27;7.28;;;23.10;68.80;;;;;;6351039;28;20038;-61
2021/09/11 08:24:53;;;;;;;16.73;6.75;;;23.20;68.90;;;;;;6351695;28;20043;-61
2021/09/11 08:27:53;;;;;;;13.93;7.22;;;23.10;68.80;;;;;;6351591;28;20028;-61
2021/09/11 08:30:54;;;;;;;14.05;6.50;;;23.10;68.80;;;;;;6350273;28;20074;-61
2021/09/11 08:33:54;;;;;;;11.65;5.95;;;23.10;68.80;;;;;;6351583;28;20032;-61
2021/09/11 08:36:55;;;;;;;12.02;7.18;;;23.10;68.80;;;;;;6350816;28;20038;-61
2021/09/11 08:39:56;;;;;;;13.10;6.18;;;23.10;68.70;;;;;;6333200;28;20020;-61
2021/09/11 08:42:57;;;;;;;11.73;6.45;;;23.10;68.70;;;;;;6350246;28;20051;-61
2021/09/11 08:45:57;;;;;;;12.23;7.55;;;23.10;68.70;;;;;;6316472;28;20350;-61
2021/09/11 08:48:58;;;;;;;12.38;6.93;;;23.20;68.60;;;;;;6348761;28;20033;-61
2021/09/11 08:52:02;;;;;;;13.20;6.10;;;23.20;68.80;;;;;;6351644;28;20030;-61
2021/09/11 08:55:04;;;;;;;14.13;6.63;;;23.10;68.70;;;;;;6349860;28;20031;-61
2021/09/11 08:58:05;;;;;;;12.77;6.00;;;23.10;68.60;;;;;;6315815;28;20351;-61
2021/09/11 09:01:07;;;;;;;11.95;6.90;;;23.20;68.60;;;;;;6332470;28;20446;-61
2021/09/11 09:04:08;;;;;;;11.15;6.18;;;23.20;68.70;;;;;;6331226;28;20055;-61
2021/09/11 09:07:08;;;;;;;11.10;6.40;;;23.20;68.80;;;;;;6351085;28;20024;-61
2021/09/11 09:10:16;;;;;;;9.95;5.63;;;23.10;68.60;;;;;;6348786;28;20024;-61
2021/09/11 09:13:17;;;;;;;10.98;6.43;;;23.10;68.60;;;;;;6351237;28;20446;-61
2021/09/11 09:16:18;;;;;;;10.65;6.03;;;23.10;68.60;;;;;;6349497;28;20027;-61
2021/09/11 09:19:20;;;;;;;7.65;5.60;;;23.20;68.60;;;;;;6349848;28;20389;-61
2021/09/11 09:22:22;;;;;;;8.88;5.47;;;23.10;68.50;;;;;;6349380;28;20062;-61
2021/09/11 09:25:24;;;;;;;8.05;5.32;;;23.20;68.60;;;;;;6350064;28;20066;-61
2021/09/11 09:28:25;;;;;;;10.95;6.43;;;23.20;68.50;;;;;;6349807;28;20020;-61
2021/09/11 09:31:26;;;;;;;11.45;6.05;;;23.20;68.50;;;;;;6314696;28;20024;-61
2021/09/11 09:34:37;;;;;;;9.70;5.85;;;23.10;68.40;;;;;;6349951;28;20027;-61
2021/09/11 09:37:38;;;;;;;10.48;5.80;;;23.20;68.50;;;;;;6349477;28;20031;-62
2021/09/11 09:40:42;;;;;;;10.52;6.32;;;23.20;68.70;;;;;;6314809;28;20020;-61
2021/09/11 09:43:43;;;;;;;9.27;5.72;;;23.20;68.50;;;;;;6331024;28;20474;-61
2021/09/11 09:46:44;;;;;;;8.32;6.00;;;23.20;68.50;;;;;;6331795;28;20435;-61
2021/09/11 09:50:07;;;;;;;8.18;5.25;;;23.20;68.40;;;;;;6348170;28;20015;-61
2021/09/11 09:53:09;;;;;;;11.10;5.72;;;23.20;68.50;;;;;;6349396;28;20019;-61
2021/09/11 09:56:09;;;;;;;7.93;5.43;;;23.20;68.40;;;;;;6347949;28;20127;-61
2021/09/11 09:59:10;;;;;;;7.82;5.72;;;23.20;68.40;;;;;;6349836;28;20039;-61
2021/09/11 10:02:11;;;;;;;7.90;5.55;;;23.20;68.40;;;;;;6330347;28;20059;-61
2021/09/11 10:05:12;;;;;;;7.55;5.45;;;23.20;68.40;;;;;;6332234;28;20028;-61
2021/09/11 10:08:13;;;;;;;8.45;5.60;;;23.20;68.40;;;;;;6329934;28;20406;-61
2021/09/11 10:11:14;;;;;;;6.53;5.03;;;23.30;68.40;;;;;;6314622;28;20103;-61
2021/09/11 10:14:14;;;;;;;7.78;5.55;;;23.30;68.30;;;;;;6331290;28;20051;-61
2021/09/11 10:17:15;;;;;;;6.88;5.28;;;23.30;68.20;;;;;;6348450;28;20035;-61
2021/09/11 10:20:15;;;;;;;7.68;5.53;;;23.30;68.10;;;;;;6314417;28;20035;-61
2021/09/11 10:23:16;;;;;;;9.40;5.70;;;23.40;68.10;;;;;;6348330;28;20045;-61
2021/09/11 10:26:41;;;;;;;7.90;5.38;;;23.30;68.00;;;;;;6348752;28;20058;-61
2021/09/11 10:29:46;;;;;;;7.37;4.97;;;23.40;68.00;;;;;;6347709;28;20035;-61
2021/09/11 10:32:49;;;;;;;9.60;5.90;;;23.40;67.90;;;;;;6348981;28;20409;-61
2021/09/11 10:35:50;;;;;;;7.68;5.38;;;23.40;67.90;;;;;;6348258;28;20082;-61
2021/09/11 10:38:51;;;;;;;7.22;5.28;;;23.40;67.80;;;;;;6330851;28;20812;-62
2021/09/11 10:42:06;;;;;;;7.22;4.85;;;23.50;67.80;;;;;;6347333;28;20028;-61
2021/09/11 10:45:07;;;;;;;8.18;5.30;;;23.50;67.70;;;;;;6349011;28;20031;-61
2021/09/11 10:48:30;;;;;;;9.57;5.78;;;23.50;67.60;;;;;;6330015;28;20428;-61
2021/09/11 10:51:35;;;;;;;8.27;5.00;;;23.50;67.50;;;;;;6349017;28;20019;-61
2021/09/11 10:54:39;;;;;;;8.23;4.93;;;23.50;67.50;;;;;;6349456;28;20019;-61
2021/09/11 10:57:39;;;;;;;6.10;5.10;;;23.60;67.50;;;;;;6330905;28;20111;-61
2021/09/11 11:00:57;;;;;;;5.72;4.97;;;23.50;67.40;;;;;;6348557;28;20016;-61
2021/09/11 11:04:08;;;;;;;8.80;5.07;;;23.60;67.50;;;;;;6347651;28;20019;-61
2021/09/11 11:07:09;;;;;;;7.45;5.15;;;23.60;67.50;;;;;;6348833;28;20034;-62
2021/09/11 11:10:11;;;;;;;7.53;6.07;;;23.60;67.40;;;;;;6347239;28;20015;-61
2021/09/11 11:13:12;;;;;;;6.70;4.88;;;23.60;67.40;;;;;;6352348;28;20024;-61
2021/09/11 11:16:13;;;;;;;6.60;5.05;;;23.50;67.30;;;;;;6334113;28;20084;-61
2021/09/11 11:19:20;;;;;;;6.72;5.15;;;23.60;67.40;;;;;;6352668;28;20033;-62
2021/09/11 11:22:26;;;;;;;7.80;5.18;;;23.60;67.30;;;;;;6351403;28;20023;-60
2021/09/11 11:25:28;;;;;;;9.27;4.97;;;23.60;67.40;;;;;;6334306;28;20039;-59
2021/09/11 11:28:29;;;;;;;7.88;5.40;;;23.70;67.20;;;;;;6351050;28;20174;-56
2021/09/11 11:31:39;;;;;;;6.97;5.25;;;23.70;67.30;;;;;;6351735;28;20012;-58
2021/09/11 11:34:40;;;;;;;6.78;4.65;;;23.70;67.10;;;;;;6335289;28;20016;-59
2021/09/11 11:37:41;;;;;;;6.28;5.03;;;23.70;67.10;;;;;;6333979;28;20488;-58
2021/09/11 11:40:41;;;;;;;6.40;5.07;;;23.70;67.20;;;;;;6352057;28;20027;-58
2021/09/11 11:43:42;;;;;;;6.88;4.97;;;23.70;67.20;;;;;;6332179;28;20548;-58
2021/09/11 11:46:42;;;;;;;8.77;5.28;;;23.70;67.20;;;;;;6323276;28;20024;-57
2021/09/11 11:49:43;;;;;;;7.97;5.07;;;23.70;67.20;;;;;;6333061;28;20027;-59
2021/09/11 11:52:44;;;;;;;10.68;5.18;;;23.70;67.20;;;;;;6343561;28;20024;-59
2021/09/11 11:55:46;;;;;;;10.43;5.72;;;23.80;67.20;;;;;;6318342;28;20062;-59
2021/09/11 11:58:56;;;;;;;13.80;5.40;;;23.70;67.20;;;;;;6333841;28;20118;-58
2021/09/11 12:01:56;;;;;;;14.75;6.72;;;23.80;67.20;;;;;;6351277;28;20027;-59
2021/09/11 12:05:16;;;;;;;10.15;5.85;;;23.80;67.20;;;;;;6352754;28;20217;-57
2021/09/11 12:08:17;;;;;;;10.73;5.95;;;23.80;67.90;;;;;;6351308;28;20028;-58
2021/09/11 12:11:19;;;;;;;13.98;5.72;;;23.80;67.20;;;;;;6334683;28;20340;-57
2021/09/11 12:14:19;;;;;;;14.98;6.78;;;23.80;67.10;;;;;;6352027;28;20031;-57
2021/09/11 12:17:20;;;;;;;18.38;6.20;;;23.80;67.00;;;;;;6316475;28;20152;-58
2021/09/11 12:20:22;;;;;;;13.88;6.43;;;23.90;67.10;;;;;;6340480;28;20039;-58
2021/09/11 12:23:28;;;;;;;15.05;6.65;;;23.90;67.00;;;;;;6336897;28;20023;-63
2021/09/11 12:26:32;;;;;;;17.73;7.53;;;23.90;67.50;;;;;;6351394;28;20050;-62
2021/09/11 12:29:33;;;;;;;14.55;7.18;;;23.90;67.20;;;;;;6349762;28;20016;-63
2021/09/11 12:32:34;;;;;;;17.45;7.30;;;24.00;67.00;;;;;;6333158;28;20081;-64
2021/09/11 12:35:35;;;;;;;15.02;5.63;;;24.00;66.90;;;;;;6349067;28;20031;-62
2021/09/11 12:38:39;;;;;;;15.57;6.65;;;24.10;66.80;;;;;;6332595;28;20027;-57
2021/09/11 12:41:40;;;;;;;13.20;6.97;;;24.10;66.90;;;;;;6350747;28;20023;-61
2021/09/11 12:44:41;;;;;;;12.40;5.97;;;24.10;66.80;;;;;;6350817;28;20030;-64
2021/09/11 12:47:42;;;;;;;14.25;6.72;;;24.10;66.80;;;;;;6350810;28;20045;-62
2021/09/11 12:50:42;;;;;;;16.23;6.30;;;24.10;66.70;;;;;;6349043;28;20023;-63
2021/09/11 12:53:43;;;;;;;19.10;6.95;;;24.20;66.90;;;;;;6351764;28;20027;-63
2021/09/11 12:56:44;;;;;;;18.48;6.38;;;24.20;67.00;;;;;;6350532;28;20042;-64
2021/09/11 12:59:44;;;;;;;13.60;6.68;;;24.20;67.10;;;;;;6350756;28;20048;-65
2021/09/11 13:02:45;;;;;;;14.13;6.47;;;24.20;67.20;;;;;;6350793;28;20072;-62
2021/09/11 13:05:46;;;;;;;7.25;3.28;;;24.30;67.00;;;;;;6159050;28;75746;-70
2021/09/11 13:08:47;;;;;;;7.25;3.00;;;23.80;57.90;;;;;;6205807;28;20077;-72
2021/09/11 13:11:48;;;;;;;5.90;2.90;;;23.40;60.60;;;;;;6295848;28;20047;-71
2021/09/11 13:14:49;;;;;;;4.90;2.90;;;24.20;59.50;;;;;;6270937;28;20094;-70
2021/09/11 13:17:49;;;;;;;5.30;3.10;;;24.60;57.50;;;;;;6257894;28;20044;-69
2021/09/11 13:20:52;;;;;;;4.72;2.65;;;23.90;59.00;;;;;;6299521;28;20025;-70
2021/09/11 13:23:53;;;;;;;6.90;3.35;;;23.50;60.20;;;;;;6299230;28;20025;-69
2021/09/11 13:26:54;;;;;;;5.78;3.00;;;23.40;61.80;;;;;;6299895;28;20205;-68
2021/09/11 13:29:55;;;;;;;5.80;2.50;;;24.00;59.30;;;;;;6299316;28;20020;-70
2021/09/11 13:32:56;;;;;;;3.88;2.42;;;23.50;58.50;;;;;;6300086;28;20099;-71
2021/09/11 13:35:57;;;;;;;4.72;2.67;;;24.10;59.30;;;;;;6280607;28;20028;-72
2021/09/11 13:38:58;;;;;;;3.10;2.40;;;24.10;57.90;;;;;;6265545;28;20413;-72
2021/09/11 13:41:58;;;;;;;3.78;2.30;;;23.90;58.40;;;;;;6298972;28;20028;-72
2021/09/11 13:44:59;;;;;;;5.80;2.78;;;24.50;56.30;;;;;;6300082;28;20025;-73
2021/09/11 13:48:00;;;;;;;7.10;2.42;;;25.20;54.40;;;;;;6298821;28;20027;-73
2021/09/11 13:51:01;;;;;;;3.03;2.20;;;25.00;55.30;;;;;;6299332;28;20024;-72
2021/09/11 13:54:01;;;;;;;7.47;2.53;;;24.50;54.80;;;;;;6282467;28;20020;-71
2021/09/11 13:57:02;;;;;;;3.63;2.30;;;24.30;55.40;;;;;;6298745;28;20028;-72
2021/09/11 14:00:04;;;;;;;3.75;1.90;;;25.00;54.10;;;;;;6281808;28;20025;-70
2021/09/11 14:03:06;;;;;;;4.28;2.20;;;24.30;54.50;;;;;;6298205;28;20028;-68
2021/09/11 14:06:07;;;;;;;4.95;2.50;;;24.30;54.80;;;;;;6299163;28;20036;-69
2021/09/11 14:09:08;;;;;;;6.03;1.90;;;23.30;56.80;;;;;;6298667;28;20068;-71
2021/09/11 14:12:08;;;;;;;3.53;1.80;;;23.60;54.70;;;;;;6264925;28;20028;-69
2021/09/11 14:15:09;;;;;;;2.60;2.00;;;23.10;56.50;;;;;;6280534;28;20465;-71
2021/09/11 14:18:11;;;;;;;2.80;1.70;;;23.80;54.90;;;;;;6153004;28;20038;-70
2021/09/11 14:21:11;;;;;;;2.92;1.55;;;24.50;53.90;;;;;;6210479;28;69481;-70
2021/09/11 14:24:12;;;;;;;2.95;2.08;;;23.40;55.50;;;;;;6292973;28;20051;-71
2021/09/11 14:27:12;;;;;;;3.85;2.05;;;23.30;55.50;;;;;;6278531;28;20106;-70
2021/09/11 14:30:15;;;;;;;2.53;2.00;;;23.60;53.80;;;;;;6248974;28;20079;-71
2021/09/11 14:33:16;;;;;;;3.03;1.90;;;24.10;54.50;;;;;;6237582;28;20021;-70
2021/09/11 14:36:17;;;;;;;2.83;2.00;;;23.50;54.90;;;;;;6254189;28;20036;-70
2021/09/11 14:39:17;;;;;;;2.90;1.70;;;24.10;53.60;;;;;;6274057;28;20025;-71
2021/09/11 14:42:18;;;;;;;3.50;2.13;;;24.30;52.40;;;;;;6273174;28;20036;-70
2021/09/11 14:45:18;;;;;;;2.90;2.25;;;24.80;52.70;;;;;;6274382;28;20039;-71
2021/09/11 14:48:19;;;;;;;3.45;2.17;;;24.90;50.90;;;;;;6276103;28;20459;-71
2021/09/11 14:51:20;;;;;;;5.35;2.30;;;25.00;50.90;;;;;;6261692;28;20355;-69
2021/09/11 14:54:20;;;;;;;3.05;2.10;;;25.40;51.30;;;;;;6279751;28;20336;-70
2021/09/11 14:57:21;;;;;;;3.20;2.05;;;25.90;50.50;;;;;;6260459;28;20474;-70
2021/09/11 15:00:21;;;;;;;3.10;1.70;;;25.60;50.40;;;;;;6278618;28;20548;-69
2021/09/11 15:03:22;;;;;;;3.58;2.00;;;24.70;51.60;;;;;;6260276;28;20041;-69
2021/09/11 15:06:23;;;;;;;5.43;2.00;;;23.70;53.10;;;;;;6261373;28;20344;-70
2021/09/11 15:09:23;;;;;;;4.47;1.60;;;23.10;55.70;;;;;;6260253;28;20378;-69
2021/09/11 15:12:24;;;;;;;6.13;1.92;;;22.90;56.10;;;;;;6278227;28;20355;-69
2021/09/11 15:15:25;;;;;;;3.88;1.95;;;22.80;56.60;;;;;;6243702;28;20029;-69
2021/09/11 15:18:25;;;;;;;2.65;1.60;;;22.60;56.70;;;;;;6278047;28;20498;-69
2021/09/11 15:21:26;;;;;;;4.30;1.90;;;22.30;57.00;;;;;;6260413;28;20436;-66
2021/09/11 15:24:26;;;;;;;3.10;1.70;;;23.00;60.40;;;;;;6260734;28;20455;-64
2021/09/11 15:27:28;;;;;;;4.97;1.80;;;23.60;59.50;;;;;;6259258;28;20371;-65
2021/09/11 15:30:29;;;;;;;3.42;1.58;;;24.20;59.20;;;;;;6259120;28;20022;-67
2021/09/11 15:33:30;;;;;;;5.53;2.55;;;24.50;59.50;;;;;;6276976;28;20059;-66
2021/09/11 15:36:30;;;;;;;5.35;2.15;;;24.80;61.10;;;;;;6276776;28;20033;-65
2021/09/11 15:39:31;;;;;;;2.75;1.70;;;25.00;62.80;;;;;;6276505;28;20021;-65
2021/09/11 15:42:32;;;;;;;6.65;2.15;;;25.10;60.80;;;;;;6251934;28;20095;-66
2021/09/11 15:45:33;;;;;;;4.45;2.08;;;25.20;61.20;;;;;;6256798;28;20360;-66
2021/09/11 15:48:33;;;;;;;4.93;2.20;;;25.30;63.30;;;;;;6258287;28;20021;-66
2021/09/11 15:51:34;;;;;;;3.53;1.90;;;25.30;62.90;;;;;;6259504;28;20029;-64
2021/09/11 15:54:34;;;;;;;3.35;1.80;;;25.30;61.70;;;;;;6277463;28;20028;-65
2021/09/11 15:57:35;;;;;;;5.05;1.92;;;25.20;61.90;;;;;;6274754;28;20037;-66
2021/09/11 16:00:36;;;;;;;4.47;2.03;;;25.20;62.80;;;;;;6258677;28;20033;-66
2021/09/11 16:03:36;;;;;;;3.58;2.00;;;25.10;63.10;;;;;;6257000;28;20033;-63
2021/09/11 16:06:37;;;;;;;3.22;1.90;;;25.00;63.10;;;;;;6275800;28;20032;-63
2021/09/11 16:09:38;;;;;;;4.22;2.10;;;24.90;62.90;;;;;;6257549;28;20021;-64
2021/09/11 16:12:38;;;;;;;5.32;2.70;;;24.90;62.90;;;;;;6276704;28;20039;-64
2021/09/11 16:15:39;;;;;;;4.22;1.92;;;24.90;62.90;;;;;;6257212;28;20029;-63
2021/09/11 16:18:40;;;;;;;3.58;2.10;;;24.90;63.00;;;;;;6258132;28;20474;-64
2021/09/11 16:21:40;;;;;;;3.78;2.15;;;24.90;63.20;;;;;;6257126;28;20382;-64
2021/09/11 16:24:41;;;;;;;4.32;2.38;;;24.90;63.40;;;;;;6274797;28;20052;-63
2021/09/11 16:27:42;;;;;;;3.03;2.00;;;24.80;63.50;;;;;;6254900;28;20648;-64
2021/09/11 16:30:42;;;;;;;2.83;1.92;;;24.80;63.60;;;;;;6258508;28;20025;-65
2021/09/11 16:33:43;;;;;;;5.20;2.00;;;24.90;63.80;;;;;;6258683;28;20032;-65
2021/09/11 16:36:44;;;;;;;4.35;2.03;;;24.90;63.80;;;;;;6274300;28;20025;-65
2021/09/11 16:39:45;;;;;;;1.85;1.52;;;24.90;63.90;;;;;;6263397;28;20108;-63
2021/09/11 16:42:46;;;;;;;4.22;2.28;;;24.70;64.10;;;;;;6250512;28;20440;-63
2021/09/11 16:45:48;;;;;;;3.40;1.92;;;24.70;64.50;;;;;;6234289;28;20075;-63
2021/09/11 16:48:49;;;;;;;2.85;1.60;;;24.60;64.90;;;;;;6249899;28;20031;-65
2021/09/11 16:51:49;;;;;;;4.47;2.25;;;24.50;65.00;;;;;;6234239;28;20083;-63
2021/09/11 16:54:50;;;;;;;3.17;2.00;;;24.50;65.30;;;;;;6250377;28;20033;-66
2021/09/11 16:57:50;;;;;;;2.80;2.15;;;24.40;65.40;;;;;;6233987;28;20022;-66
2021/09/11 17:00:51;;;;;;;3.33;1.77;;;24.40;65.60;;;;;;6259408;28;20487;-63
2021/09/11 17:03:52;;;;;;;2.90;2.00;;;24.30;65.70;;;;;;6271057;28;20762;-64
2021/09/11 17:06:52;;;;;;;4.15;1.98;;;24.30;65.80;;;;;;6255045;28;20048;-65
2021/09/11 17:09:53;;;;;;;3.47;1.75;;;24.30;65.90;;;;;;6270762;28;20100;-66
2021/09/11 17:12:54;;;;;;;4.13;2.20;;;24.30;66.10;;;;;;6272987;28;20025;-67
2021/09/11 17:15:54;;;;;;;4.43;1.95;;;24.30;66.10;;;;;;6271723;28;20111;-64
2021/09/11 17:18:55;;;;;;;4.30;2.17;;;24.20;66.10;;;;;;6272743;28;20063;-66
2021/09/11 17:21:56;;;;;;;3.08;2.00;;;24.20;66.30;;;;;;6253170;28;20032;-68
2021/09/11 17:24:56;;;;;;;5.30;1.80;;;24.20;66.50;;;;;;6254596;28;20082;-66
2021/09/11 17:27:57;;;;;;;3.08;1.80;;;24.10;66.60;;;;;;6254754;28;20025;-66
2021/09/11 17:30:58;;;;;;;3.65;2.00;;;24.10;66.90;;;;;;6254524;28;20032;-67
2021/09/11 17:33:59;;;;;;;4.15;2.08;;;24.10;67.00;;;;;;6272484;28;20108;-67
2021/09/11 17:37:01;;;;;;;2.88;2.10;;;24.00;67.00;;;;;;6271540;28;20162;-68
2021/09/11 17:40:02;;;;;;;3.72;2.10;;;24.00;67.20;;;;;;6238208;28;20039;-68
2021/09/11 17:43:04;;;;;;;2.78;2.08;;;24.00;67.10;;;;;;6271740;28;20428;-65
2021/09/11 17:46:05;;;;;;;5.15;2.30;;;23.90;67.10;;;;;;6253985;28;20025;-65
2021/09/11 17:49:05;;;;;;;2.38;1.85;;;23.90;67.30;;;;;;6252873;28;20025;-64
2021/09/11 17:52:06;;;;;;;4.68;2.10;;;23.90;67.60;;;;;;6253974;28;20021;-66
2021/09/11 17:55:07;;;;;;;3.45;2.20;;;23.80;67.70;;;;;;6270294;28;20025;-62
2021/09/11 17:58:07;;;;;;;3.90;2.35;;;23.80;67.90;;;;;;6271540;28;20067;-66
2021/09/11 18:01:08;;;;;;;3.42;1.75;;;23.70;68.10;;;;;;6270909;28;20021;-65
2021/09/11 18:04:09;;;;;;;4.03;1.98;;;23.70;68.10;;;;;;6270884;28;20412;-64
2021/09/11 18:07:10;;;;;;;3.08;2.17;;;23.70;68.40;;;;;;6272155;28;20024;-65
2021/09/11 18:10:11;;;;;;;2.92;2.20;;;23.60;68.30;;;;;;6253199;28;20092;-63
2021/09/11 18:13:12;;;;;;;6.40;2.47;;;23.60;68.90;;;;;;6272007;28;20455;-63
2021/09/11 18:16:12;;;;;;;3.42;2.03;;;23.50;68.60;;;;;;6270444;28;20025;-66
2021/09/11 18:19:13;;;;;;;3.13;1.98;;;23.50;68.80;;;;;;6270812;28;20467;-66
2021/09/11 18:22:14;;;;;;;3.08;1.90;;;23.40;68.80;;;;;;6251906;28;20521;-66
2021/09/11 18:25:14;;;;;;;5.93;2.13;;;23.40;68.90;;;;;;6270686;28;20061;-66
2021/09/11 18:28:15;;;;;;;3.42;2.15;;;23.40;69.50;;;;;;6253027;28;20017;-66
2021/09/11 18:31:16;;;;;;;3.67;2.00;;;23.30;69.50;;;;;;6253989;28;20029;-64
2021/09/11 18:34:18;;;;;;;4.80;2.78;;;23.20;69.70;;;;;;6254302;28;20399;-63
2021/09/11 18:37:19;;;;;;;2.58;2.13;;;23.20;70.00;;;;;;6270555;28;20033;-65
2021/09/11 18:40:19;;;;;;;2.45;1.90;;;23.20;70.00;;;;;;6271229;28;20036;-67
2021/09/11 18:43:20;;;;;;;4.65;2.22;;;23.20;70.20;;;;;;6253478;28;20036;-66
2021/09/11 18:46:20;;;;;;;3.58;2.03;;;23.20;70.80;;;;;;6271230;28;20033;-66
2021/09/11 18:49:21;;;;;;;4.00;2.13;;;23.10;71.50;;;;;;6252587;28;20368;-65
2021/09/11 18:52:22;;;;;;;6.10;2.45;;;23.10;71.10;;;;;;6253441;28;20460;-63
2021/09/11 18:55:22;;;;;;;4.22;2.30;;;23.10;71.20;;;;;;6270535;28;20104;-65
2021/09/11 18:58:23;;;;;;;3.53;2.30;;;23.10;71.50;;;;;;6271319;28;20037;-65
2021/09/11 19:01:23;;;;;;;3.63;2.30;;;23.00;71.40;;;;;;6269947;28;20075;-64
2021/09/11 19:04:24;;;;;;;2.35;1.90;;;23.00;71.60;;;;;;6271573;28;20037;-65
2021/09/11 19:07:25;;;;;;;3.33;2.10;;;23.00;71.90;;;;;;6271161;28;20112;-64
2021/09/11 19:10:25;;;;;;;2.80;2.10;;;23.00;72.00;;;;;;6252790;28;20130;-64
2021/09/11 19:13:26;;;;;;;5.80;2.30;;;23.00;72.00;;;;;;6253617;28;20082;-67
2021/09/11 19:16:28;;;;;;;3.45;2.38;;;22.90;72.00;;;;;;6269673;28;20306;-68
2021/09/11 19:19:29;;;;;;;4.28;2.30;;;23.00;72.00;;;;;;6253244;28;20058;-66
2021/09/11 19:22:29;;;;;;;3.60;2.50;;;22.90;71.90;;;;;;6241402;28;20040;-70
